Time;durP1;ratioP1;P1;durP2;ratioP2;P2;SDS_P1;SDS_P2;PMS_P1;PMS_P2;Temp;Humidity;BMP_temperature;BMP_pressure;BME280_temperature;BME280_humidity;BME280_pressure;Samples;Min_cycle;Max_cycle;Signal;HPM_P1;HPM_P2
2023/06/05 00:01:06;;;;;;;2.85;0.95;;;10.40;59.30;;;;;;5088837;28;20450;-54
2023/06/05 00:03:32;;;;;;;1.65;0.90;;;10.40;60.20;;;;;;5104213;28;20024;-54
2023/06/05 00:05:57;;;;;;;2.03;1.05;;;10.40;59.00;;;;;;5069717;28;20112;-51
2023/06/05 00:08:23;;;;;;;1.80;1.08;;;10.40;58.60;;;;;;5106534;28;20104;-55
2023/06/05 00:10:48;;;;;;;2.35;1.00;;;10.40;59.50;;;;;;5090788;28;20530;-54
2023/06/05 00:13:14;;;;;;;1.13;0.77;;;10.30;59.50;;;;;;5094220;28;20024;-53
2023/06/05 00:15:39;;;;;;;1.98;0.85;;;10.30;59.10;;;;;;5081891;28;20403;-55
2023/06/05 00:18:05;;;;;;;2.20;1.00;;;10.20;57.60;;;;;;5105216;28;20031;-52
2023/06/05 00:20:31;;;;;;;1.58;0.90;;;10.20;59.60;;;;;;5089066;28;20102;-54
2023/06/05 00:22:56;;;;;;;2.75;1.00;;;10.10;59.10;;;;;;5100690;28;20063;-50
2023/06/05 00:25:22;;;;;;;0.90;0.77;;;10.10;60.40;;;;;;5076154;28;20123;-55
2023/06/05 00:27:47;;;;;;;1.38;0.90;;;10.10;60.80;;;;;;5105073;28;20051;-53
2023/06/05 00:30:14;;;;;;;1.73;1.13;;;10.00;60.40;;;;;;5086654;28;20064;-54
2023/06/05 00:32:39;;;;;;;2.00;1.05;;;10.00;60.60;;;;;;5103174;28;20032;-52
2023/06/05 00:35:07;;;;;;;1.50;1.10;;;9.90;60.80;;;;;;5093802;28;20032;-50
2023/06/05 00:37:33;;;;;;;1.30;0.93;;;9.90;61.50;;;;;;5101662;28;20038;-51
2023/06/05 00:39:59;;;;;;;2.80;1.10;;;9.90;62.00;;;;;;5083542;28;20077;-53
2023/06/05 00:42:26;;;;;;;1.60;1.20;;;9.80;60.80;;;;;;5091158;28;20129;-52
2023/06/05 00:44:52;;;;;;;3.20;0.90;;;9.80;61.40;;;;;;5083749;28;20016;-53
2023/06/05 00:47:17;;;;;;;2.88;1.23;;;9.70;62.70;;;;;;5108075;28;20398;-52
2023/06/05 00:49:43;;;;;;;4.50;1.08;;;9.70;62.40;;;;;;5097732;28;20039;-50
2023/06/05 00:52:09;;;;;;;0.68;0.60;;;9.70;64.20;;;;;;5089066;28;20048;-54
2023/06/05 00:54:34;;;;;;;1.58;0.93;;;9.60;63.60;;;;;;5081167;28;20043;-51
2023/06/05 00:57:00;;;;;;;2.17;1.13;;;9.60;64.30;;;;;;5096459;28;20041;-54
2023/06/05 00:59:27;;;;;;;1.65;0.73;;;9.50;63.80;;;;;;5089862;28;20043;-53
2023/06/05 01:01:53;;;;;;;2.22;0.98;;;9.50;63.30;;;;;;5110823;28;20023;-50
2023/06/05 01:04:18;;;;;;;2.10;1.00;;;9.50;65.50;;;;;;5089609;28;20074;-51
2023/06/05 01:06:45;;;;;;;1.25;0.88;;;9.50;66.10;;;;;;5088264;28;20032;-50
2023/06/05 01:09:13;;;;;;;0.85;0.80;;;9.40;65.30;;;;;;5102193;28;20027;-53
2023/06/05 01:11:52;;;;;;;4.15;1.13;;;9.40;67.10;;;;;;5090890;28;20028;-51
2023/06/05 01:14:32;;;;;;;1.38;0.95;;;9.40;67.70;;;;;;5075672;28;20024;-51
2023/06/05 01:17:00;;;;;;;2.35;0.75;;;9.30;66.60;;;;;;5090900;28;20020;-53
2023/06/05 01:19:28;;;;;;;1.58;0.90;;;9.30;67.30;;;;;;5100965;28;20016;-54
2023/06/05 01:22:03;;;;;;;1.10;0.90;;;9.30;67.60;;;;;;5109461;28;20047;-55
2023/06/05 01:24:29;;;;;;;0.98;0.80;;;9.20;66.60;;;;;;5077010;28;20066;-51
2023/06/05 01:27:07;;;;;;;1.50;0.80;;;9.20;70.10;;;;;;5110446;28;20063;-51
2023/06/05 01:29:39;;;;;;;2.60;0.77;;;9.20;69.40;;;;;;5077274;28;20113;-52
2023/06/05 01:32:37;;;;;;;2.10;0.88;;;9.20;68.40;;;;;;5070288;28;20033;-52
2023/06/05 01:35:08;;;;;;;0.88;0.80;;;9.10;70.30;;;;;;5075752;28;20067;-53
2023/06/05 01:37:40;;;;;;;1.40;0.95;;;9.10;70.00;;;;;;5110250;28;20027;-52
2023/06/05 01:40:10;;;;;;;1.85;1.10;;;9.10;70.60;;;;;;5081827;28;20103;-55
2023/06/05 01:42:36;;;;;;;2.92;1.02;;;9.10;69.20;;;;;;5110441;28;20024;-53
2023/06/05 01:48:27;;;;;;;2.47;1.00;;;9.00;70.20;;;;;;5070109;28;20086;-52
2023/06/05 01:50:55;;;;;;;1.08;0.70;;;9.00;71.70;;;;;;5087854;28;20043;-54
2023/06/05 01:53:21;;;;;;;1.17;0.90;;;8.90;69.40;;;;;;5108496;28;20027;-53
2023/06/05 01:55:48;;;;;;;1.33;1.02;;;8.90;72.00;;;;;;5088514;28;20024;-54
2023/06/05 01:58:14;;;;;;;1.02;0.88;;;8.90;71.90;;;;;;5109540;28;20491;-53
2023/06/05 02:00:39;;;;;;;1.40;0.95;;;8.90;71.40;;;;;;5088517;28;20081;-49
2023/06/05 02:03:05;;;;;;;2.60;1.33;;;8.90;72.10;;;;;;5109268;28;20027;-50
2023/06/05 02:05:31;;;;;;;1.33;0.80;;;8.90;70.80;;;;;;5094898;28;20490;-54
2023/06/05 02:07:58;;;;;;;1.20;0.90;;;8.90;73.00;;;;;;5089952;28;20073;-53
2023/06/05 02:10:24;;;;;;;3.03;1.10;;;8.80;72.10;;;;;;5091517;28;20028;-53
2023/06/05 02:12:50;;;;;;;1.33;1.17;;;8.80;74.00;;;;;;5109085;28;20527;-52
2023/06/05 02:15:16;;;;;;;2.15;0.93;;;8.80;75.20;;;;;;5088182;28;20104;-54
2023/06/05 02:17:45;;;;;;;2.85;1.17;;;8.80;73.70;;;;;;5109150;28;20028;-54
2023/06/05 02:20:15;;;;;;;3.22;1.20;;;8.80;73.10;;;;;;5087727;28;20024;-54
2023/06/05 02:22:41;;;;;;;0.93;0.80;;;8.80;73.70;;;;;;5069010;28;20107;-52
2023/06/05 02:25:07;;;;;;;2.17;1.42;;;8.80;75.40;;;;;;5092179;28;20111;-54
2023/06/05 02:27:32;;;;;;;1.95;1.02;;;8.80;73.40;;;;;;5106840;28;20031;-49
2023/06/05 02:29:58;;;;;;;2.17;1.00;;;8.80;74.60;;;;;;5099776;28;20031;-53
2023/06/05 02:32:26;;;;;;;1.30;0.80;;;8.70;73.50;;;;;;5095185;28;20028;-52
2023/06/05 02:34:52;;;;;;;1.88;1.20;;;8.80;74.00;;;;;;5109842;28;20022;-54
2023/06/05 02:37:18;;;;;;;1.88;1.00;;;8.80;73.20;;;;;;5088024;28;20049;-52
2023/06/05 02:39:45;;;;;;;1.90;1.15;;;8.70;77.10;;;;;;5089518;28;20040;-53
2023/06/05 02:42:12;;;;;;;3.30;0.90;;;8.70;73.80;;;;;;5101374;28;20086;-53
2023/06/05 02:44:37;;;;;;;1.92;0.80;;;8.70;72.70;;;;;;5089534;28;20111;-50
2023/06/05 02:47:03;;;;;;;2.55;1.00;;;8.70;73.10;;;;;;5102498;28;20722;-51
2023/06/05 02:49:29;;;;;;;1.80;1.10;;;8.70;76.00;;;;;;5088025;28;20069;-55
2023/06/05 02:51:55;;;;;;;2.92;1.40;;;8.60;74.40;;;;;;5103409;28;20035;-52
2023/06/05 02:54:21;;;;;;;2.00;1.17;;;8.60;75.30;;;;;;5089113;28;20028;-54
2023/06/05 02:56:47;;;;;;;3.70;1.33;;;8.60;76.20;;;;;;5104587;28;20114;-51
2023/06/05 02:59:12;;;;;;;2.65;1.25;;;8.60;78.80;;;;;;5089020;28;20454;-54
2023/06/05 03:01:46;;;;;;;3.97;1.15;;;8.70;78.00;;;;;;5105677;28;20076;-54
2023/06/05 03:04:12;;;;;;;1.67;1.00;;;8.70;76.30;;;;;;5089152;28;20024;-55
2023/06/05 03:06:38;;;;;;;3.25;1.23;;;8.70;77.90;;;;;;5103018;28;20047;-52
2023/06/05 03:09:04;;;;;;;2.55;1.20;;;8.70;78.80;;;;;;5089180;28;20051;-53
2023/06/05 03:11:29;;;;;;;5.28;1.85;;;8.70;79.10;;;;;;5108476;28;20030;-54
2023/06/05 03:13:55;;;;;;;4.25;1.15;;;8.80;76.60;;;;;;5087037;28;20400;-54
2023/06/05 03:16:23;;;;;;;4.47;1.27;;;8.90;77.10;;;;;;5108473;28;20062;-54
2023/06/05 03:18:48;;;;;;;3.38;1.10;;;8.90;76.40;;;;;;5087319;28;20031;-52
2023/06/05 03:21:14;;;;;;;1.70;1.10;;;8.90;75.20;;;;;;5108417;28;20031;-52
2023/06/05 03:23:39;;;;;;;1.88;1.05;;;9.00;75.60;;;;;;5087497;28;20039;-53
2023/06/05 03:26:05;;;;;;;1.85;0.90;;;9.00;75.10;;;;;;5108400;28;20072;-54
2023/06/05 03:28:33;;;;;;;1.23;0.98;;;9.10;74.30;;;;;;5096986;28;20051;-50
2023/06/05 03:30:59;;;;;;;2.47;1.35;;;9.30;74.70;;;;;;5088807;28;20060;-55
2023/06/05 03:33:24;;;;;;;3.00;1.30;;;9.40;74.90;;;;;;5094688;28;20059;-54
2023/06/05 03:35:50;;;;;;;4.82;1.63;;;9.50;72.90;;;;;;5112444;28;20100;-52
2023/06/05 03:38:15;;;;;;;1.77;1.00;;;10.00;70.90;;;;;;5091429;28;20107;-53
2023/06/05 03:40:41;;;;;;;2.40;1.30;;;10.50;67.60;;;;;;5112384;28;20043;-55
2023/06/05 03:43:07;;;;;;;4.43;1.10;;;11.10;65.80;;;;;;5091364;28;20507;-53
2023/06/05 03:45:35;;;;;;;2.13;1.25;;;11.60;62.60;;;;;;5112441;28;20487;-52
2023/06/05 03:48:01;;;;;;;4.75;1.40;;;12.10;60.80;;;;;;5090984;28;20055;-53
2023/06/05 03:50:30;;;;;;;2.50;1.20;;;12.60;59.80;;;;;;5112224;28;20059;-54
2023/06/05 03:53:02;;;;;;;7.97;1.42;;;13.00;57.50;;;;;;5084992;28;20101;-55
2023/06/05 03:55:40;;;;;;;1.60;1.08;;;13.50;56.20;;;;;;5072212;28;20017;-56
2023/06/05 03:58:10;;;;;;;1.38;1.02;;;13.90;53.30;;;;;;5075033;28;20052;-55
2023/06/05 04:00:35;;;;;;;1.30;1.20;;;14.40;49.50;;;;;;5092426;28;20016;-54
2023/06/05 04:03:01;;;;;;;1.80;0.93;;;14.70;48.30;;;;;;5106937;28;20032;-54
2023/06/05 04:05:27;;;;;;;1.50;1.27;;;15.10;47.30;;;;;;5097642;28;20031;-53
2023/06/05 04:07:52;;;;;;;1.05;0.90;;;15.50;46.20;;;;;;5090749;28;20065;-56
2023/06/05 04:10:18;;;;;;;3.35;1.17;;;15.90;44.60;;;;;;5092481;28;20020;-53
2023/06/05 04:12:43;;;;;;;2.90;1.33;;;16.30;44.30;;;;;;5109399;28;20084;-58
2023/06/05 04:15:10;;;;;;;1.58;1.10;;;16.70;43.30;;;;;;5091843;28;20028;-54
2023/06/05 04:17:37;;;;;;;1.75;1.10;;;17.00;41.50;;;;;;5111797;28;20027;-54
2023/06/05 04:20:04;;;;;;;1.75;1.05;;;17.50;42.20;;;;;;5090455;28;20040;-53
2023/06/05 04:22:29;;;;;;;2.20;0.93;;;17.80;40.60;;;;;;5111764;28;20050;-54
2023/06/05 04:24:55;;;;;;;2.38;1.02;;;18.20;39.70;;;;;;5090627;28;20028;-54
2023/06/05 04:27:21;;;;;;;2.70;1.20;;;18.70;37.10;;;;;;5110844;28;20105;-53
2023/06/05 04:29:47;;;;;;;2.00;1.00;;;19.00;34.70;;;;;;5090133;28;20089;-52
2023/06/05 04:32:13;;;;;;;2.67;1.58;;;19.30;32.50;;;;;;5110827;28;20046;-59
2023/06/05 04:34:40;;;;;;;3.40;1.23;;;19.70;31.60;;;;;;5096417;28;20084;-58
2023/06/05 04:37:05;;;;;;;2.53;1.27;;;20.00;29.00;;;;;;5109667;28;20022;-57
2023/06/05 04:39:31;;;;;;;1.73;1.05;;;20.40;28.60;;;;;;5074656;28;20215;-58
2023/06/05 04:41:56;;;;;;;2.35;1.20;;;20.70;26.70;;;;;;5110302;28;20395;-58
2023/06/05 04:44:22;;;;;;;4.10;1.17;;;20.80;22.90;;;;;;5088800;28;20031;-57
2023/06/05 04:46:47;;;;;;;2.75;1.25;;;21.00;23.10;;;;;;5111008;28;20043;-58
2023/06/05 04:49:14;;;;;;;1.35;0.90;;;21.10;17.50;;;;;;5090229;28;20027;-58
2023/06/05 04:51:40;;;;;;;2.25;1.10;;;21.40;20.70;;;;;;5110755;28;20027;-58
2023/06/05 04:54:06;;;;;;;1.60;1.10;;;21.70;19.90;;;;;;5089926;28;20022;-56
2023/06/05 04:56:34;;;;;;;2.85;1.15;;;21.90;18.20;;;;;;5111091;28;20313;-57
2023/06/05 04:59:02;;;;;;;3.53;1.20;;;22.20;17.90;;;;;;5089332;28;20024;-58
2023/06/05 05:01:28;;;;;;;1.92;1.35;;;22.50;16.00;;;;;;5111011;28;20024;-57
2023/06/05 05:03:54;;;;;;;1.20;1.02;;;22.70;16.40;;;;;;5088350;28;20101;-58
2023/06/05 05:06:20;;;;;;;2.03;1.27;;;23.10;15.60;;;;;;5107982;28;20020;-58
2023/06/05 05:08:48;;;;;;;2.30;1.20;;;23.20;12.70;;;;;;5089706;27;20035;-56
2023/06/05 05:11:15;;;;;;;1.80;1.20;;;23.50;14.40;;;;;;5110940;28;20047;-59
2023/06/05 05:13:41;;;;;;;1.52;1.00;;;23.90;13.80;;;;;;5089638;28;20020;-58
2023/06/05 05:16:07;;;;;;;3.05;1.02;;;24.30;12.80;;;;;;5109361;28;20023;-59
2023/06/05 05:18:34;;;;;;;1.45;1.00;;;24.50;12.40;;;;;;5088051;28;20108;-58
2023/06/05 05:21:00;;;;;;;1.85;1.10;;;25.00;11.40;;;;;;5090434;28;20016;-58
2023/06/05 05:23:25;;;;;;;1.95;1.00;;;25.40;10.90;;;;;;5101604;28;20051;-58
2023/06/05 05:25:51;;;;;;;3.13;1.27;;;25.80;9.30;;;;;;5090205;28;20032;-59
2023/06/05 05:28:17;;;;;;;2.35;1.17;;;26.10;9.00;;;;;;5099735;28;20044;-60
2023/06/05 05:30:42;;;;;;;2.03;1.23;;;26.20;8.40;;;;;;5108487;28;20038;-59
2023/06/05 05:33:07;;;;;;;1.40;1.30;;;26.50;8.10;;;;;;5088833;28;20047;-59
2023/06/05 05:35:33;;;;;;;5.18;1.30;;;27.00;7.90;;;;;;5090147;28;20024;-59
2023/06/05 05:37:58;;;;;;;3.85;1.02;;;26.90;6.00;;;;;;5104893;28;20545;-59
2023/06/05 05:40:24;;;;;;;1.20;1.02;;;27.20;6.40;;;;;;5090153;28;20034;-59
2023/06/05 05:42:49;;;;;;;2.67;1.48;;;27.40;5.60;;;;;;5094143;28;20032;-59
2023/06/05 05:45:15;;;;;;;2.15;1.33;;;27.10;4.90;;;;;;5087457;28;20050;-59
2023/06/05 05:47:41;;;;;;;2.30;0.90;;;27.70;4.50;;;;;;5081618;28;20086;-59
2023/06/05 05:50:06;;;;;;;4.65;1.67;;;28.10;4.50;;;;;;5088592;28;20021;-59
2023/06/05 05:52:33;;;;;;;1.60;1.15;;;28.20;2.90;;;;;;5088186;28;20046;-61
2023/06/05 05:54:59;;;;;;;4.90;1.20;;;28.60;3.70;;;;;;5082182;28;20518;-59
2023/06/05 05:57:25;;;;;;;3.08;1.02;;;29.00;3.00;;;;;;5092245;28;20044;-60
2023/06/05 05:59:50;;;;;;;2.70;1.25;;;29.50;2.50;;;;;;5091641;28;20404;-58
2023/06/05 06:02:17;;;;;;;5.45;1.52;;;29.40;1.30;;;;;;5076149;28;20162;-59
2023/06/05 06:04:43;;;;;;;2.08;1.35;;;29.50;1.00;;;;;;5088514;28;20028;-59
2023/06/05 06:07:09;;;;;;;1.55;1.30;;;28.70;1.00;;;;;;5078141;28;20020;-58
2023/06/05 06:09:35;;;;;;;2.03;1.30;;;28.90;1.00;;;;;;5073115;28;20061;-60
2023/06/05 06:12:05;;;;;;;1.20;1.00;;;29.20;1.00;;;;;;5086435;28;20046;-59
2023/06/05 06:14:33;;;;;;;1.20;1.10;;;29.70;1.00;;;;;;5105887;28;20498;-60
2023/06/05 06:17:00;;;;;;;3.45;1.45;;;30.40;1.00;;;;;;5104412;28;20430;-59
2023/06/05 06:19:27;;;;;;;1.27;1.17;;;31.00;1.00;;;;;;5093258;28;20026;-60
2023/06/05 06:21:53;;;;;;;2.20;1.00;;;31.90;1.00;;;;;;5093183;28;20055;-58
2023/06/05 06:24:22;;;;;;;2.25;1.23;;;32.50;1.00;;;;;;5088634;28;20119;-59
2023/06/05 06:26:48;;;;;;;2.85;1.00;;;33.00;1.00;;;;;;5086887;28;20020;-59
2023/06/05 06:29:20;;;;;;;1.42;1.15;;;32.70;1.00;;;;;;5089844;28;20521;-60
2023/06/05 06:31:46;;;;;;;1.58;1.05;;;32.50;1.00;;;;;;5095916;28;20032;-60
2023/06/05 06:34:12;;;;;;;2.55;1.50;;;32.70;1.00;;;;;;5077284;28;20029;-59
2023/06/05 06:36:43;;;;;;;2.88;1.25;;;32.50;1.00;;;;;;5087430;28;20523;-59
2023/06/05 06:39:10;;;;;;;1.20;1.10;;;33.00;1.00;;;;;;5078569;28;20024;-59
2023/06/05 06:41:36;;;;;;;1.30;0.90;;;33.80;1.00;;;;;;5102310;28;20024;-59
2023/06/05 06:44:02;;;;;;;1.45;1.05;;;34.50;1.00;;;;;;5093149;28;20114;-60
2023/06/05 06:46:28;;;;;;;0.90;0.90;;;35.10;1.00;;;;;;5088688;28;20032;-59
2023/06/05 06:48:53;;;;;;;1.58;1.00;;;35.50;1.00;;;;;;5086686;28;20031;-58
2023/06/05 06:51:19;;;;;;;1.75;1.08;;;35.20;1.00;;;;;;5107012;28;20067;-60
2023/06/05 06:53:44;;;;;;;1.38;1.27;;;35.60;1.00;;;;;;5087857;28;20488;-59
2023/06/05 06:56:10;;;;;;;1.25;1.05;;;36.40;1.00;;;;;;5108780;28;20054;-59
2023/06/05 06:58:36;;;;;;;2.78;1.00;;;36.80;1.00;;;;;;5087432;28;20028;-59
2023/06/05 07:01:03;;;;;;;2.58;1.10;;;37.20;1.00;;;;;;5108255;28;20100;-59
2023/06/05 07:03:28;;;;;;;2.85;1.13;;;37.20;1.00;;;;;;5087435;28;20111;-59
2023/06/05 07:05:54;;;;;;;1.30;1.00;;;36.60;1.00;;;;;;5102176;28;20110;-59
2023/06/05 07:08:19;;;;;;;1.83;0.82;;;36.50;1.00;;;;;;5087582;28;20484;-59
2023/06/05 07:10:45;;;;;;;2.65;1.10;;;36.40;1.00;;;;;;5108281;28;20062;-59
2023/06/05 07:13:11;;;;;;;1.60;1.30;;;36.60;1.00;;;;;;5087314;28;20389;-59
2023/06/05 07:15:37;;;;;;;1.48;1.20;;;36.70;1.00;;;;;;5108165;28;20165;-60
2023/06/05 07:18:02;;;;;;;2.30;1.35;;;37.10;1.00;;;;;;5087182;28;20103;-59
2023/06/05 07:20:28;;;;;;;2.92;1.30;;;37.20;1.00;;;;;;5108176;28;20020;-59
2023/06/05 07:22:53;;;;;;;1.80;1.02;;;37.90;1.00;;;;;;5087166;28;20510;-59
2023/06/05 07:25:20;;;;;;;2.33;1.20;;;38.10;1.00;;;;;;5108097;28;20031;-59
2023/06/05 07:27:46;;;;;;;0.93;0.90;;;37.70;1.00;;;;;;5096033;28;20495;-58
2023/06/05 07:30:15;;;;;;;1.42;0.80;;;37.70;1.00;;;;;;5089043;28;20039;-59
2023/06/05 07:32:42;;;;;;;1.48;1.05;;;37.10;1.00;;;;;;5106363;28;20059;-59
2023/06/05 07:35:08;;;;;;;1.80;1.10;;;37.40;1.00;;;;;;5088533;28;20098;-59
2023/06/05 07:37:34;;;;;;;3.13;1.10;;;37.80;1.00;;;;;;5106044;28;20023;-59
2023/06/05 07:40:00;;;;;;;1.55;0.90;;;38.20;1.00;;;;;;5088762;28;20648;-58
2023/06/05 07:42:26;;;;;;;2.72;1.13;;;38.80;1.00;;;;;;5106025;28;20089;-58
2023/06/05 07:44:51;;;;;;;1.40;0.98;;;38.80;1.00;;;;;;5088730;28;20081;-57
2023/06/05 07:47:17;;;;;;;1.40;1.00;;;38.70;1.00;;;;;;5105978;28;20164;-60
2023/06/05 07:49:42;;;;;;;1.30;0.98;;;37.30;1.00;;;;;;5108535;28;20441;-59
2023/06/05 07:52:08;;;;;;;1.77;1.10;;;37.70;1.00;;;;;;5092072;28;20542;-59
2023/06/05 07:54:33;;;;;;;1.20;1.05;;;37.70;1.00;;;;;;5108684;28;20054;-59
2023/06/05 07:56:59;;;;;;;1.35;1.10;;;38.00;1.00;;;;;;5091024;28;20422;-60
2023/06/05 07:59:27;;;;;;;1.38;1.02;;;37.70;1.00;;;;;;5108844;28;20055;-59
2023/06/05 08:01:54;;;;;;;2.13;1.40;;;37.60;1.00;;;;;;5089807;28;20051;-59
2023/06/05 08:04:19;;;;;;;1.85;1.08;;;36.90;1.00;;;;;;5108774;28;20269;-60
2023/06/05 08:06:45;;;;;;;2.08;1.17;;;36.70;1.00;;;;;;5085503;28;20024;-60
2023/06/05 08:09:12;;;;;;;1.63;1.00;;;37.10;1.00;;;;;;5092723;28;20089;-59
2023/06/05 08:11:38;;;;;;;2.67;0.80;;;37.80;1.00;;;;;;5089714;28;20153;-60
2023/06/05 08:14:08;;;;;;;1.20;0.90;;;37.80;1.00;;;;;;5091536;28;20454;-59
2023/06/05 08:16:34;;;;;;;1.58;1.15;;;37.80;1.00;;;;;;5088317;28;20056;-60
2023/06/05 08:19:00;;;;;;;1.90;1.08;;;37.20;1.00;;;;;;5098786;28;20085;-59
2023/06/05 08:21:25;;;;;;;1.60;1.23;;;37.20;1.00;;;;;;5111657;28;20035;-60
2023/06/05 08:23:51;;;;;;;1.98;0.98;;;37.20;1.00;;;;;;5088083;28;20476;-59
2023/06/05 08:26:19;;;;;;;1.83;1.17;;;35.80;1.00;;;;;;5090286;28;20031;-59
2023/06/05 08:28:45;;;;;;;1.67;1.02;;;35.10;1.00;;;;;;5103383;28;20048;-60
2023/06/05 08:31:10;;;;;;;2.85;1.00;;;35.20;1.00;;;;;;5091697;28;20043;-59
2023/06/05 08:33:37;;;;;;;2.38;1.23;;;35.30;1.00;;;;;;5103424;28;20052;-60
2023/06/05 08:36:04;;;;;;;2.28;1.25;;;35.30;1.00;;;;;;5091674;28;20085;-59
2023/06/05 08:38:30;;;;;;;1.95;1.20;;;34.60;1.00;;;;;;5105227;28;20028;-59
2023/06/05 08:40:59;;;;;;;2.72;1.25;;;33.20;1.00;;;;;;5091704;28;20024;-59
2023/06/05 08:43:25;;;;;;;1.00;0.90;;;33.00;1.00;;;;;;5106082;28;20035;-60
2023/06/05 08:45:52;;;;;;;1.10;0.98;;;32.70;1.00;;;;;;5090338;28;20024;-59
2023/06/05 08:48:21;;;;;;;2.88;1.00;;;32.70;1.00;;;;;;5089542;28;20081;-60
2023/06/05 08:50:48;;;;;;;2.13;1.23;;;31.10;1.00;;;;;;5082080;28;20164;-60
2023/06/05 08:53:16;;;;;;;2.13;1.00;;;30.10;1.00;;;;;;5107211;28;20552;-60
2023/06/05 08:55:44;;;;;;;2.38;1.30;;;29.80;1.00;;;;;;5094165;28;20052;-60
2023/06/05 08:58:12;;;;;;;1.30;1.15;;;28.90;1.00;;;;;;5089775;28;20024;-59
2023/06/05 09:00:38;;;;;;;2.80;1.30;;;29.10;1.00;;;;;;5109514;28;20027;-59
2023/06/05 09:03:03;;;;;;;2.45;1.50;;;29.40;1.00;;;;;;5088603;28;20116;-59
2023/06/05 09:05:29;;;;;;;2.50;1.33;;;29.20;1.00;;;;;;5098605;28;20055;-60
2023/06/05 09:07:54;;;;;;;1.55;1.00;;;28.80;1.00;;;;;;5098962;28;20024;-59
2023/06/05 09:10:30;;;;;;;2.55;1.15;;;29.30;1.00;;;;;;5103097;28;20062;-59
2023/06/05 09:12:57;;;;;;;1.35;1.00;;;29.50;1.00;;;;;;5072238;28;20482;-59
2023/06/05 09:15:28;;;;;;;3.25;1.20;;;29.40;1.00;;;;;;5109007;28;20055;-60
2023/06/05 09:18:10;;;;;;;2.88;1.13;;;29.20;1.00;;;;;;5079600;28;20115;-61
2023/06/05 09:20:39;;;;;;;1.00;0.80;;;29.50;1.00;;;;;;5070446;28;20557;-59
2023/06/05 09:23:24;;;;;;;2.65;1.20;;;29.60;1.00;;;;;;5101806;28;20388;-59
2023/06/05 09:25:50;;;;;;;1.92;1.02;;;29.40;1.00;;;;;;5105956;28;20049;-59
2023/06/05 09:28:17;;;;;;;2.72;1.17;;;29.50;1.00;;;;;;5083096;28;20093;-59
2023/06/05 09:30:59;;;;;;;2.42;1.38;;;29.40;1.00;;;;;;5088384;28;20020;-59
2023/06/05 09:33:29;;;;;;;2.63;1.50;;;29.30;1.00;;;;;;5078811;28;20566;-60
2023/06/05 09:36:05;;;;;;;1.45;1.00;;;29.20;1.00;;;;;;5070180;28;20044;-59
2023/06/05 09:38:31;;;;;;;4.85;1.40;;;28.80;1.00;;;;;;5074604;28;20095;-59
2023/06/05 09:41:07;;;;;;;1.83;1.08;;;28.90;1.00;;;;;;5109943;28;20119;-59
2023/06/05 09:43:33;;;;;;;1.60;1.40;;;29.40;1.00;;;;;;5085677;28;20019;-59
2023/06/05 09:46:05;;;;;;;2.42;1.60;;;28.50;1.00;;;;;;5109934;28;20019;-59
2023/06/05 09:48:32;;;;;;;3.95;1.50;;;28.00;1.00;;;;;;5073708;28;20043;-59
2023/06/05 09:51:12;;;;;;;2.10;1.38;;;27.20;1.00;;;;;;5108961;28;20015;-58
2023/06/05 09:53:45;;;;;;;1.67;1.10;;;27.30;1.00;;;;;;5078924;28;20044;-59
2023/06/05 09:56:18;;;;;;;1.52;1.10;;;27.00;1.00;;;;;;5094959;28;20127;-59
2023/06/05 09:58:49;;;;;;;1.58;1.10;;;27.30;1.00;;;;;;5084263;28;20236;-58
2023/06/05 10:01:17;;;;;;;1.85;1.38;;;27.80;1.00;;;;;;5069182;28;20081;-58
2023/06/05 10:03:47;;;;;;;2.05;1.30;;;27.80;1.00;;;;;;5078721;28;20443;-59
2023/06/05 10:06:13;;;;;;;2.85;1.38;;;27.70;1.00;;;;;;5063485;28;20040;-57
2023/06/05 10:08:39;;;;;;;3.25;1.52;;;27.40;1.00;;;;;;5070971;28;20060;-58
2023/06/05 10:11:05;;;;;;;3.80;1.58;;;27.30;1.00;;;;;;5099711;28;20020;-58
2023/06/05 10:13:32;;;;;;;3.47;1.63;;;26.90;1.00;;;;;;5093876;28;20044;-57
2023/06/05 10:15:59;;;;;;;1.63;1.20;;;26.60;1.00;;;;;;5091956;28;20016;-59
2023/06/05 10:18:25;;;;;;;1.85;1.42;;;26.20;1.00;;;;;;5088210;28;20303;-59
2023/06/05 10:20:52;;;;;;;2.25;1.60;;;26.20;1.00;;;;;;5088619;28;20724;-56
2023/06/05 10:23:19;;;;;;;2.05;1.25;;;26.20;1.00;;;;;;5069485;28;20036;-59
2023/06/05 10:25:47;;;;;;;1.58;1.33;;;26.20;1.00;;;;;;5094255;28;20024;-58
2023/06/05 10:28:35;;;;;;;1.45;1.20;;;26.10;1.00;;;;;;5097875;28;20039;-58
2023/06/05 10:31:18;;;;;;;2.67;1.20;;;26.10;1.00;;;;;;5068941;28;20374;-59
2023/06/05 10:34:04;;;;;;;3.00;1.60;;;26.30;1.00;;;;;;5068951;28;20044;-56
2023/06/05 10:36:56;;;;;;;2.05;1.40;;;26.10;1.00;;;;;;5072367;28;20028;-55
2023/06/05 10:39:25;;;;;;;2.90;1.90;;;25.40;1.00;;;;;;5058267;28;20630;-57
2023/06/05 10:41:51;;;;;;;5.88;1.90;;;25.20;1.00;;;;;;5106941;28;20053;-55
2023/06/05 10:44:17;;;;;;;5.20;1.63;;;25.00;1.00;;;;;;5109271;28;20032;-55
2023/06/05 10:46:42;;;;;;;2.22;1.60;;;24.70;1.00;;;;;;5092866;28;20742;-57
2023/06/05 10:49:12;;;;;;;2.20;1.48;;;24.80;1.00;;;;;;5109178;28;20024;-56
2023/06/05 10:52:04;;;;;;;2.83;1.88;;;24.90;1.00;;;;;;5090032;28;20126;-58
2023/06/05 10:54:30;;;;;;;2.40;1.70;;;24.60;1.00;;;;;;5086489;28;20036;-57
2023/06/05 10:56:59;;;;;;;1.83;1.52;;;24.50;1.00;;;;;;5106375;28;20076;-57
2023/06/05 10:59:27;;;;;;;3.08;1.38;;;24.50;1.00;;;;;;5109077;28;20028;-57
2023/06/05 11:02:18;;;;;;;4.45;1.50;;;24.50;1.00;;;;;;5093503;28;20023;-56
2023/06/05 11:04:46;;;;;;;1.98;1.60;;;24.70;1.00;;;;;;5069034;28;20447;-57
2023/06/05 11:07:29;;;;;;;2.67;1.40;;;24.60;1.00;;;;;;5105567;28;20475;-57
2023/06/05 11:10:20;;;;;;;2.65;1.73;;;24.80;1.00;;;;;;5068386;28;20511;-58
2023/06/05 11:12:46;;;;;;;2.15;1.50;;;25.00;1.00;;;;;;5080869;28;20043;-57
2023/06/05 11:15:16;;;;;;;2.55;1.58;;;24.90;1.00;;;;;;5107893;28;20100;-57
2023/06/05 11:17:42;;;;;;;1.60;1.45;;;25.00;1.00;;;;;;5087101;28;20515;-57
2023/06/05 11:20:21;;;;;;;4.20;2.15;;;24.90;1.00;;;;;;5108019;28;20027;-57
2023/06/05 11:22:52;;;;;;;1.92;1.38;;;24.80;1.00;;;;;;5080766;28;20032;-56
2023/06/05 11:25:18;;;;;;;2.20;1.45;;;24.80;1.00;;;;;;5107952;28;20028;-57
2023/06/05 11:27:51;;;;;;;1.75;1.33;;;24.70;1.00;;;;;;5089985;28;20031;-57
2023/06/05 11:30:22;;;;;;;4.55;1.52;;;24.60;1.00;;;;;;5107433;28;20030;-57
2023/06/05 11:32:51;;;;;;;3.88;1.73;;;24.60;1.00;;;;;;5086645;28;20032;-57
2023/06/05 11:35:21;;;;;;;3.22;1.75;;;24.70;1.00;;;;;;5108334;28;20070;-57
2023/06/05 11:37:46;;;;;;;3.03;1.70;;;24.60;1.00;;;;;;5086599;28;20305;-56
2023/06/05 11:40:24;;;;;;;3.03;1.70;;;24.60;1.00;;;;;;5108144;28;20027;-55
2023/06/05 11:42:49;;;;;;;3.80;1.92;;;24.50;1.00;;;;;;5080907;28;20476;-56
2023/06/05 11:45:15;;;;;;;3.25;1.73;;;24.30;1.00;;;;;;5107661;28;20027;-56
2023/06/05 11:47:41;;;;;;;2.25;1.75;;;24.40;1.00;;;;;;5087042;28;20032;-56
2023/06/05 11:50:16;;;;;;;2.45;1.92;;;24.40;1.00;;;;;;5107716;28;20127;-57
2023/06/05 11:52:42;;;;;;;2.10;1.70;;;24.40;1.00;;;;;;5080672;28;20039;-58
2023/06/05 11:55:16;;;;;;;2.95;1.98;;;24.20;1.00;;;;;;5111871;28;20395;-56
2023/06/05 11:57:43;;;;;;;1.92;1.60;;;24.20;1.00;;;;;;5090653;28;20073;-57
2023/06/05 12:00:11;;;;;;;2.47;1.70;;;24.30;1.00;;;;;;5111716;28;20048;-58
2023/06/05 12:02:37;;;;;;;3.78;1.92;;;24.20;1.00;;;;;;5090932;28;20028;-57
2023/06/05 12:05:14;;;;;;;2.63;1.85;;;24.20;1.00;;;;;;5099711;28;20028;-57
2023/06/05 12:07:39;;;;;;;2.72;1.95;;;24.10;1.00;;;;;;5103121;28;20046;-58
2023/06/05 12:10:07;;;;;;;4.85;2.13;;;24.20;1.00;;;;;;5092247;28;20024;-56
2023/06/05 12:12:49;;;;;;;3.40;1.60;;;24.20;1.00;;;;;;5097471;28;20317;-58
2023/06/05 12:15:16;;;;;;;2.00;1.60;;;24.40;1.00;;;;;;5071618;28;20078;-57
2023/06/05 12:17:55;;;;;;;2.00;1.58;;;24.50;1.00;;;;;;5095813;28;20406;-57
2023/06/05 12:20:21;;;;;;;3.28;1.73;;;24.60;1.00;;;;;;5071333;28;20028;-57
2023/06/05 12:22:48;;;;;;;6.63;1.80;;;24.70;1.00;;;;;;5094670;28;20162;-55
2023/06/05 12:25:19;;;;;;;3.28;1.83;;;24.60;1.00;;;;;;5111176;28;20046;-57
2023/06/05 12:27:45;;;;;;;2.08;1.80;;;24.50;1.00;;;;;;5092751;28;20073;-57
2023/06/05 12:30:16;;;;;;;2.67;2.20;;;24.50;1.00;;;;;;5111816;28;20112;-57
2023/06/05 12:32:45;;;;;;;3.20;2.00;;;24.50;1.00;;;;;;5082876;28;20062;-54
2023/06/05 12:35:21;;;;;;;5.65;2.45;;;24.50;1.00;;;;;;5111558;28;20402;-57
2023/06/05 12:37:47;;;;;;;;;;;24.40;1.00;;;;;;5084181;28;20147;-55
2023/06/05 12:40:13;;;;;;;2.35;2.10;;;24.30;1.00;;;;;;5110835;28;19911;-56
2023/06/05 12:42:43;;;;;;;2.90;2.00;;;24.40;1.00;;;;;;5089894;28;20032;-56
2023/06/05 12:45:09;;;;;;;3.72;1.83;;;24.40;1.00;;;;;;5109949;28;20256;-57
2023/06/05 12:47:36;;;;;;;4.00;1.90;;;24.50;1.00;;;;;;5089658;28;20437;-58
2023/06/05 12:50:07;;;;;;;1.83;1.63;;;24.50;1.00;;;;;;5110760;28;20124;-58
2023/06/05 12:52:32;;;;;;;2.00;1.70;;;24.40;1.00;;;;;;5089357;28;20111;-58
2023/06/05 12:54:58;;;;;;;6.63;2.10;;;24.50;1.00;;;;;;5110464;28;20075;-56
2023/06/05 12:57:24;;;;;;;3.10;2.15;;;24.40;1.00;;;;;;5100399;28;20436;-58
2023/06/05 12:59:51;;;;;;;7.05;2.03;;;24.40;1.00;;;;;;5091541;28;20028;-57
2023/06/05 13:02:17;;;;;;;5.63;1.67;;;24.40;1.00;;;;;;5108988;28;20027;-57